createdAt,value
2019-04-29T00:00:39.143Z,7.54
2019-04-29T00:03:07.518Z,7.52
2019-04-29T00:05:35.842Z,7.52
2019-04-29T00:08:04.220Z,7.88
2019-04-29T00:10:33.176Z,7.88
2019-04-29T00:13:01.643Z,7.60
2019-04-29T00:15:37.614Z,7.78
2019-04-29T00:18:22.509Z,7.74
2019-04-29T00:20:52.262Z,7.30
2019-04-29T00:23:20.629Z,7.51
2019-04-29T00:25:49.096Z,7.51
2019-04-29T00:28:17.755Z,7.52
2019-04-29T00:30:46.116Z,7.54
2019-04-29T00:33:14.499Z,7.55
2019-04-29T00:35:42.868Z,7.53
2019-04-29T00:38:12.845Z,7.45
2019-04-29T00:40:48.251Z,7.46
2019-04-29T00:43:36.434Z,7.53
2019-04-29T00:46:05.256Z,7.50
2019-04-29T00:48:33.590Z,7.51
2019-04-29T00:51:01.888Z,7.45
2019-04-29T00:53:30.531Z,7.52
2019-04-29T00:56:00.489Z,7.36
2019-04-29T00:58:28.852Z,7.40
2019-04-29T01:00:57.444Z,7.21
2019-04-29T01:03:25.808Z,7.22
2019-04-29T01:05:54.254Z,7.21
2019-04-29T01:08:22.570Z,7.16
2019-04-29T01:10:51.045Z,7.18
2019-04-29T01:13:19.352Z,7.14
2019-04-29T01:15:47.647Z,7.20
2019-04-29T01:18:16.038Z,7.11
2019-04-29T01:20:44.339Z,7.08
2019-04-29T01:23:12.657Z,7.05
2019-04-29T01:25:42.589Z,7.01
2019-04-29T01:28:15.496Z,6.92
2019-04-29T01:31:00.407Z,6.93
2019-04-29T01:33:28.703Z,6.91
2019-04-29T01:36:07.566Z,6.88
2019-04-29T01:38:35.860Z,6.81
2019-04-29T01:41:08.633Z,6.81
2019-04-29T01:43:54.386Z,6.89
2019-04-29T01:46:22.804Z,6.81
2019-04-29T01:48:51.100Z,6.76
2019-04-29T01:51:19.398Z,6.83
2019-04-29T01:53:47.717Z,6.80
2019-04-29T01:56:16.006Z,6.82
2019-04-29T01:58:44.406Z,6.81
2019-04-29T02:01:12.781Z,6.76
2019-04-29T02:03:41.129Z,6.84
2019-04-29T02:06:10.226Z,6.84
2019-04-29T02:08:38.595Z,6.92
2019-04-29T02:11:06.993Z,7.01
2019-04-29T02:13:35.397Z,7.17
2019-04-29T02:16:03.768Z,7.07
2019-04-29T02:18:32.164Z,7.09
2019-04-29T02:21:00.458Z,7.02
2019-04-29T02:23:33.050Z,7.02
2019-04-29T02:26:01.491Z,7.08
2019-04-29T02:28:29.784Z,7.03
2019-04-29T02:31:00.112Z,6.97
2019-04-29T02:33:28.680Z,6.90
2019-04-29T02:35:56.996Z,6.90
2019-04-29T02:38:29.341Z,6.90
2019-04-29T02:41:05.079Z,6.85
2019-04-29T02:43:35.726Z,6.82
2019-04-29T02:46:04.419Z,6.70
2019-04-29T02:48:34.683Z,6.79
2019-04-29T02:51:02.756Z,6.75
2019-04-29T02:53:31.139Z,6.73
2019-04-29T02:56:00.627Z,6.75
2019-04-29T02:58:30.933Z,6.71
2019-04-29T03:01:17.374Z,6.73
2019-04-29T03:04:05.099Z,6.89
2019-04-29T03:06:33.487Z,6.89
2019-04-29T03:09:01.875Z,6.82
2019-04-29T03:11:30.347Z,6.80
2019-04-29T03:13:58.784Z,6.85
2019-04-29T03:16:27.153Z,6.53
2019-04-29T03:18:59.860Z,6.47
2019-04-29T03:21:30.207Z,6.45
2019-04-29T03:23:58.520Z,5.90
2019-04-29T03:26:26.821Z,6.49
2019-04-29T03:28:55.189Z,6.52
2019-04-29T03:31:23.520Z,6.49
2019-04-29T03:33:51.817Z,6.48
2019-04-29T03:36:20.118Z,6.48
2019-04-29T03:38:48.599Z,6.41
2019-04-29T03:41:17.256Z,6.45
2019-04-29T03:43:45.670Z,6.48
2019-04-29T03:46:14.034Z,6.47
2019-04-29T03:48:42.329Z,6.68
2019-04-29T03:51:10.989Z,6.69
2019-04-29T03:53:39.287Z,6.66
2019-04-29T03:56:07.610Z,6.55
2019-04-29T03:58:35.917Z,6.58
2019-04-29T04:01:21.845Z,6.61
2019-04-29T04:03:57.977Z,6.61
2019-04-29T04:06:30.656Z,6.45
2019-04-29T04:09:06.124Z,6.50
2019-04-29T04:11:30.806Z,6.56
2019-04-29T04:13:59.116Z,6.56
2019-04-29T04:16:32.082Z,6.51
2019-04-29T04:19:08.254Z,6.54
2019-04-29T04:21:36.630Z,6.82
2019-04-29T04:24:05.284Z,6.81
2019-04-29T04:26:33.606Z,6.81
2019-04-29T04:29:01.906Z,6.91
2019-04-29T04:31:30.564Z,6.90
2019-04-29T04:33:58.860Z,6.92
2019-04-29T04:36:27.195Z,6.92
2019-04-29T04:38:55.488Z,7.01
2019-04-29T04:41:23.806Z,7.07
2019-04-29T04:43:52.783Z,7.07
2019-04-29T04:46:21.167Z,7.06
2019-04-29T04:48:49.471Z,7.10
2019-04-29T04:51:17.870Z,7.15
2019-04-29T04:53:46.176Z,7.23
2019-04-29T04:56:14.482Z,7.20
2019-04-29T04:58:42.852Z,7.34
2019-04-29T05:01:11.226Z,7.32
2019-04-29T05:03:39.621Z,7.31
2019-04-29T05:06:08.062Z,7.32
2019-04-29T05:08:36.380Z,7.49
2019-04-29T05:11:04.741Z,7.58
2019-04-29T05:13:33.463Z,7.59
2019-04-29T05:16:01.749Z,7.72
2019-04-29T05:18:30.042Z,7.77
2019-04-29T05:20:58.370Z,8.36
2019-04-29T05:23:26.729Z,8.08
2019-04-29T05:25:55.366Z,7.85
2019-04-29T05:28:24.260Z,7.87
2019-04-29T05:30:52.949Z,7.94
2019-04-29T05:33:21.256Z,8.09
2019-04-29T05:36:01.935Z,8.09
2019-04-29T05:38:31.831Z,8.01
2019-04-29T05:41:51.004Z,8.26
2019-04-29T05:44:20.963Z,8.31
2019-04-29T05:46:50.885Z,8.65
2019-04-29T05:49:20.826Z,8.42
2019-04-29T05:52:01.982Z,8.58
2019-04-29T05:54:33.390Z,8.83
2019-04-29T05:57:01.654Z,8.51
2019-04-29T05:59:30.009Z,8.77
2019-04-29T06:01:58.729Z,8.47
2019-04-29T06:04:28.735Z,8.40
2019-04-29T06:06:57.388Z,8.71
2019-04-29T06:09:25.699Z,8.75
2019-04-29T06:11:53.995Z,8.88
2019-04-29T06:14:22.393Z,8.91
2019-04-29T06:16:52.821Z,8.85
2019-04-29T06:19:20.762Z,8.50
2019-04-29T06:21:49.473Z,8.61
2019-04-29T06:24:18.068Z,8.45
2019-04-29T06:26:46.406Z,8.75
2019-04-29T06:29:15.232Z,9.07
2019-04-29T06:31:43.519Z,9.32
2019-04-29T06:34:13.593Z,8.91
2019-04-29T06:36:41.938Z,8.94
2019-04-29T06:39:10.246Z,8.66
2019-04-29T06:41:40.503Z,9.00
2019-04-29T06:44:16.045Z,8.94
2019-04-29T06:46:38.675Z,9.01
2019-04-29T06:49:10.488Z,8.95
2019-04-29T06:51:37.419Z,9.00
2019-04-29T06:54:06.109Z,8.78
2019-04-29T06:56:34.475Z,8.76
2019-04-29T06:59:02.835Z,8.78
2019-04-29T07:01:33.126Z,9.54
2019-04-29T07:04:01.548Z,8.83
2019-04-29T07:06:29.879Z,8.55
2019-04-29T07:08:58.166Z,8.86
2019-04-29T07:11:26.836Z,8.61
2019-04-29T07:13:57.575Z,8.49
2019-04-29T07:16:26.831Z,8.63
2019-04-29T07:18:55.972Z,8.84
2019-04-29T07:21:24.274Z,8.85
2019-04-29T07:23:52.581Z,8.91
2019-04-29T07:26:21.222Z,8.96
2019-04-29T07:28:53.342Z,8.96
2019-04-29T07:31:19.616Z,9.03
2019-04-29T07:33:47.913Z,9.21
2019-04-29T07:36:18.620Z,9.43
2019-04-29T07:38:50.643Z,9.37
2019-04-29T07:41:18.956Z,9.55
2019-04-29T07:43:46.470Z,9.61
2019-04-29T07:46:19.118Z,9.63
2019-04-29T07:49:00.335Z,9.67
2019-04-29T07:51:17.457Z,9.49
2019-04-29T07:53:45.868Z,9.64
2019-04-29T07:56:14.660Z,9.70
2019-04-29T07:58:43.038Z,9.93
2019-04-29T08:01:11.413Z,10.08
2019-04-29T08:03:39.745Z,9.88
2019-04-29T08:06:08.123Z,9.83
2019-04-29T08:08:36.989Z,9.66
2019-04-29T08:11:05.468Z,9.77
2019-04-29T08:13:34.126Z,9.65
2019-04-29T08:16:02.439Z,9.82
2019-04-29T08:18:30.817Z,10.04
2019-04-29T08:20:59.190Z,9.91
2019-04-29T08:23:27.509Z,9.85
2019-04-29T08:25:57.396Z,10.24
2019-04-29T08:28:25.841Z,9.99
2019-04-29T08:30:54.210Z,9.95
2019-04-29T08:33:22.509Z,10.17
2019-04-29T08:35:50.828Z,10.20
2019-04-29T08:38:19.127Z,10.09
2019-04-29T08:40:50.184Z,10.07
2019-04-29T08:43:24.875Z,10.16
2019-04-29T08:45:57.346Z,10.14
2019-04-29T08:48:25.672Z,10.27
2019-04-29T08:50:53.971Z,10.17
2019-04-29T08:53:22.291Z,10.48
2019-04-29T08:55:50.598Z,10.15
2019-04-29T08:58:19.003Z,10.19
2019-04-29T09:00:47.310Z,10.06
2019-04-29T09:03:18.901Z,9.80
2019-04-29T09:05:46.082Z,9.95
2019-04-29T09:08:15.775Z,10.01
2019-04-29T09:10:44.186Z,9.96
2019-04-29T09:13:12.492Z,10.06
2019-04-29T09:15:40.828Z,9.97
2019-04-29T09:18:11.167Z,10.13
2019-04-29T09:20:39.450Z,10.29
2019-04-29T09:23:09.413Z,10.27
2019-04-29T09:25:39.350Z,10.21
2019-04-29T09:28:09.717Z,10.47
2019-04-29T09:30:38.806Z,10.56
2019-04-29T09:33:08.868Z,10.59
2019-04-29T09:35:38.673Z,10.85
2019-04-29T09:38:07.890Z,10.76
2019-04-29T09:40:40.309Z,10.74
2019-04-29T09:43:15.568Z,10.85
2019-04-29T09:45:58.776Z,10.83
2019-04-29T09:48:28.406Z,10.60
2019-04-29T09:50:56.776Z,10.69
2019-04-29T09:53:25.078Z,10.53
2019-04-29T09:55:53.464Z,10.59
2019-04-29T09:58:21.763Z,10.61
2019-04-29T10:00:54.454Z,10.70
2019-04-29T10:03:40.442Z,10.69
2019-04-29T10:06:12.505Z,10.75
2019-04-29T10:08:40.689Z,10.57
2019-04-29T10:11:09.180Z,10.56
2019-04-29T10:13:37.493Z,10.51
2019-04-29T10:16:16.773Z,10.57
2019-04-29T10:18:46.714Z,10.43
2019-04-29T10:21:21.569Z,10.41
2019-04-29T10:23:46.879Z,10.48
2019-04-29T10:26:15.406Z,10.43
2019-04-29T10:28:54.531Z,10.43
2019-04-29T10:31:23.178Z,10.33
2019-04-29T10:33:55.116Z,10.34
2019-04-29T10:36:21.924Z,10.33
2019-04-29T10:38:52.422Z,10.27
2019-04-29T10:41:25.440Z,10.15
2019-04-29T10:44:11.700Z,10.01
2019-04-29T10:46:50.348Z,9.96
2019-04-29T10:49:20.371Z,10.17
2019-04-29T10:51:48.751Z,10.30
2019-04-29T10:54:17.067Z,10.28
2019-04-29T10:56:45.434Z,10.41
2019-04-29T10:59:13.764Z,10.56
2019-04-29T11:02:01.746Z,10.34
2019-04-29T11:04:25.813Z,10.37
2019-04-29T11:06:54.239Z,10.36
2019-04-29T11:09:41.197Z,10.63
2019-04-29T11:12:11.204Z,10.72
2019-04-29T11:14:39.502Z,11.03
2019-04-29T11:17:16.124Z,10.86
2019-04-29T11:19:39.947Z,10.95
2019-04-29T11:22:10.627Z,10.87
2019-04-29T11:24:46.489Z,10.90
2019-04-29T11:27:28.725Z,10.92
2019-04-29T11:29:58.584Z,10.97
2019-04-29T11:32:30.346Z,10.99
2019-04-29T11:35:03.435Z,10.83
2019-04-29T11:37:32.768Z,10.73
2019-04-29T11:40:01.148Z,10.74
2019-04-29T11:42:31.847Z,10.67
2019-04-29T11:45:02.149Z,10.60
2019-04-29T11:47:30.721Z,10.52
2019-04-29T11:50:00.745Z,10.58
2019-04-29T11:52:29.310Z,10.67
2019-04-29T11:54:58.077Z,10.60
2019-04-29T11:57:40.329Z,10.74
2019-04-29T12:00:02.528Z,10.67
2019-04-29T12:02:45.221Z,10.62
2019-04-29T12:05:25.891Z,10.61
2019-04-29T12:07:54.183Z,10.44
2019-04-29T12:10:22.572Z,10.18
2019-04-29T12:12:51.028Z,10.56
2019-04-29T12:15:21.403Z,10.70
2019-04-29T12:17:51.334Z,10.83
2019-04-29T12:20:21.298Z,10.82
2019-04-29T12:22:49.617Z,10.93
2019-04-29T12:25:17.940Z,10.85
2019-04-29T12:27:46.239Z,11.15
2019-04-29T12:30:17.215Z,11.25
2019-04-29T12:32:56.862Z,11.14
2019-04-29T12:35:50.699Z,11.14
2019-04-29T12:38:11.567Z,11.12
2019-04-29T12:40:45.600Z,11.18
2019-04-29T12:43:32.510Z,11.09
2019-04-29T12:46:05.254Z,11.17
2019-04-29T12:48:33.565Z,11.10
2019-04-29T12:51:01.867Z,10.91
2019-04-29T12:53:30.515Z,10.87
2019-04-29T12:55:58.809Z,10.96
2019-04-29T12:58:27.586Z,10.84
2019-04-29T13:01:00.950Z,11.06
2019-04-29T13:03:38.989Z,11.05
2019-04-29T13:06:02.601Z,11.05
2019-04-29T13:08:47.682Z,10.93
2019-04-29T13:11:19.322Z,11.12
2019-04-29T13:13:46.083Z,11.04
2019-04-29T13:16:33.624Z,10.96
2019-04-29T13:19:12.285Z,10.95
2019-04-29T13:21:39.888Z,10.88
2019-04-29T13:24:21.696Z,10.94
2019-04-29T13:26:42.465Z,11.03
2019-04-29T13:29:08.536Z,10.98
2019-04-29T13:31:39.148Z,10.90
2019-04-29T13:34:22.884Z,10.76
2019-04-29T13:36:38.953Z,10.78
2019-04-29T13:39:08.603Z,10.95
2019-04-29T13:41:55.567Z,11.05
2019-04-29T13:44:07.894Z,10.90
2019-04-29T13:46:46.144Z,10.96
2019-04-29T13:49:18.818Z,11.13
2019-04-29T13:51:51.635Z,10.90
2019-04-29T13:54:20.004Z,11.12
2019-04-29T13:56:56.019Z,11.12
2019-04-29T13:59:25.604Z,11.07
2019-04-29T14:02:04.319Z,10.97
2019-04-29T14:04:32.678Z,11.06
2019-04-29T14:07:01.270Z,10.91
2019-04-29T14:09:29.894Z,10.87
2019-04-29T14:12:02.936Z,10.78
2019-04-29T14:14:28.484Z,10.91
2019-04-29T14:17:17.138Z,11.09
2019-04-29T14:19:40.825Z,10.75
2019-04-29T14:21:57.354Z,10.88
2019-04-29T14:24:25.677Z,10.89
2019-04-29T14:26:53.978Z,10.65
2019-04-29T14:29:22.952Z,10.66
2019-04-29T14:31:59.179Z,10.53
2019-04-29T14:34:34.798Z,10.46
2019-04-29T14:37:19.825Z,10.17
2019-04-29T14:39:37.050Z,10.03
2019-04-29T14:42:03.730Z,9.90
2019-04-29T14:44:33.737Z,10.02
2019-04-29T14:47:19.790Z,9.89
2019-04-29T14:49:49.728Z,9.86
2019-04-29T14:52:18.114Z,9.98
2019-04-29T14:54:46.410Z,9.94
2019-04-29T14:57:14.846Z,9.60
2019-04-29T14:59:43.410Z,9.60
2019-04-29T15:02:16.996Z,9.57
2019-04-29T15:04:45.076Z,9.61
2019-04-29T15:07:13.606Z,9.50
2019-04-29T15:09:58.143Z,9.50
2019-04-29T15:12:29.929Z,9.51
2019-04-29T15:15:02.904Z,9.44
2019-04-29T15:17:35.831Z,9.43
2019-04-29T15:20:20.569Z,9.32
2019-04-29T15:22:48.819Z,9.40
2019-04-29T15:25:20.963Z,9.44
2019-04-29T15:27:47.127Z,9.42
2019-04-29T15:30:15.959Z,9.34
2019-04-29T15:32:44.807Z,9.43
2019-04-29T15:35:13.589Z,9.54
2019-04-29T15:37:41.883Z,9.34
2019-04-29T15:40:10.541Z,9.41
2019-04-29T15:42:43.236Z,9.33
2019-04-29T15:45:09.095Z,9.45
2019-04-29T15:47:41.622Z,9.49
2019-04-29T15:50:18.222Z,9.59
2019-04-29T15:52:38.365Z,9.53
2019-04-29T15:55:06.754Z,9.51
2019-04-29T15:57:35.038Z,9.46
2019-04-29T16:00:20.716Z,9.54
2019-04-29T16:02:40.229Z,9.59
2019-04-29T16:05:14.820Z,9.57
2019-04-29T16:07:55.658Z,9.54
2019-04-29T16:10:35.890Z,9.61
2019-04-29T16:13:12.110Z,9.68
2019-04-29T16:15:40.555Z,9.62
2019-04-29T16:18:10.691Z,9.63
2019-04-29T16:20:38.969Z,9.65
2019-04-29T16:23:07.641Z,9.69
2019-04-29T16:25:40.513Z,9.67
2019-04-29T16:28:06.725Z,9.67
2019-04-29T16:30:35.046Z,9.60
2019-04-29T16:33:13.010Z,9.55
2019-04-29T16:35:34.907Z,9.45
2019-04-29T16:38:05.815Z,9.46
2019-04-29T16:40:39.233Z,9.44
2019-04-29T16:43:06.790Z,9.48
2019-04-29T16:45:55.184Z,9.44
2019-04-29T16:48:23.492Z,9.43
2019-04-29T16:50:51.786Z,9.49
2019-04-29T16:53:20.142Z,9.49
2019-04-29T16:55:48.850Z,9.49
2019-04-29T16:58:18.309Z,9.45
2019-04-29T17:00:52.945Z,9.44
2019-04-29T17:03:17.303Z,9.41
2019-04-29T17:05:45.623Z,9.49
2019-04-29T17:08:15.364Z,9.44
2019-04-29T17:10:49.028Z,9.39
2019-04-29T17:13:23.331Z,9.42
2019-04-29T17:15:52.118Z,9.35
2019-04-29T17:18:17.604Z,9.38
2019-04-29T17:20:45.923Z,9.25
2019-04-29T17:23:14.327Z,9.27
2019-04-29T17:25:42.642Z,9.28
2019-04-29T17:28:25.476Z,9.23
2019-04-29T17:30:54.177Z,9.17
2019-04-29T17:33:28.158Z,9.18
2019-04-29T17:35:54.742Z,9.20
2019-04-29T17:38:23.140Z,9.09
2019-04-29T17:40:51.578Z,9.16
2019-04-29T17:43:38.436Z,9.11
2019-04-29T17:46:24.060Z,9.11
2019-04-29T17:48:54.119Z,9.10
2019-04-29T17:51:22.455Z,9.11
2019-04-29T17:53:52.459Z,9.10
2019-04-29T17:56:28.145Z,9.11
2019-04-29T17:58:58.470Z,9.08
2019-04-29T18:01:46.836Z,9.09
2019-04-29T18:04:31.497Z,9.07
2019-04-29T18:07:10.418Z,9.05
2019-04-29T18:09:42.119Z,9.08
2019-04-29T18:12:12.150Z,9.02
2019-04-29T18:14:41.926Z,9.04
2019-04-29T18:17:12.029Z,9.00
2019-04-29T18:19:45.148Z,9.02
2019-04-29T18:22:26.304Z,9.00
2019-04-29T18:24:59.606Z,8.98
2019-04-29T18:27:34.518Z,9.05
2019-04-29T18:30:02.871Z,9.02
2019-04-29T18:32:35.674Z,9.22
2019-04-29T18:35:01.245Z,9.04
2019-04-29T18:37:30.386Z,9.02
2019-04-29T18:40:02.294Z,9.03
2019-04-29T18:42:29.736Z,8.97
2019-04-29T18:45:00.341Z,8.97
2019-04-29T18:47:34.677Z,8.99
2019-04-29T18:49:59.405Z,9.00
2019-04-29T18:52:28.518Z,9.03
2019-04-29T18:54:57.218Z,8.97
2019-04-29T18:57:30.578Z,9.03
2019-04-29T18:59:55.661Z,8.99
2019-04-29T19:02:27.352Z,9.00
2019-04-29T19:04:56.592Z,8.93
2019-04-29T19:07:25.476Z,8.96
2019-04-29T19:09:55.525Z,9.00
2019-04-29T19:12:23.952Z,8.98
2019-04-29T19:14:52.629Z,8.94
2019-04-29T19:17:21.785Z,8.92
2019-04-29T19:19:50.228Z,8.88
2019-04-29T19:22:18.569Z,8.89
2019-04-29T19:24:48.208Z,8.86
2019-04-29T19:27:16.580Z,8.97
2019-04-29T19:29:44.971Z,8.98
2019-04-29T19:32:13.386Z,8.92
2019-04-29T19:34:43.437Z,8.80
2019-04-29T19:37:11.806Z,8.82
2019-04-29T19:39:40.218Z,8.83
2019-04-29T19:42:08.513Z,8.84
2019-04-29T19:44:36.987Z,8.83
2019-04-29T19:47:05.911Z,8.81
2019-04-29T19:49:35.846Z,8.83
2019-04-29T19:52:04.463Z,8.83
2019-04-29T19:54:32.773Z,8.80
2019-04-29T19:57:03.375Z,8.81
2019-04-29T19:59:31.646Z,8.86
2019-04-29T20:02:05.836Z,8.87
2019-04-29T20:04:52.292Z,8.89
2019-04-29T20:07:21.203Z,8.86
2019-04-29T20:09:59.741Z,8.89
2019-04-29T20:12:20.641Z,8.89
2019-04-29T20:14:49.656Z,8.80
2019-04-29T20:17:37.223Z,8.83
2019-04-29T20:20:18.121Z,8.78
2019-04-29T20:22:51.127Z,8.82
2019-04-29T20:25:29.016Z,8.79
2019-04-29T20:27:46.989Z,8.74
2019-04-29T20:30:19.610Z,8.74
2019-04-29T20:32:46.227Z,8.74
2019-04-29T20:35:15.875Z,8.81
2019-04-29T20:37:47.420Z,8.66
2019-04-29T20:40:16.067Z,8.73
2019-04-29T20:42:48.829Z,8.73
2019-04-29T20:45:15.546Z,8.69
2019-04-29T20:47:45.568Z,8.66
2019-04-29T20:50:15.906Z,8.67
2019-04-29T20:53:02.488Z,8.68
2019-04-29T20:55:35.852Z,8.64
2019-04-29T20:58:03.690Z,8.56
2019-04-29T21:00:35.297Z,8.54
2019-04-29T21:03:09.429Z,8.54
2019-04-29T21:05:47.160Z,8.37
2019-04-29T21:08:14.053Z,8.49
2019-04-29T21:10:38.029Z,8.53
2019-04-29T21:13:22.877Z,8.53
2019-04-29T21:16:09.069Z,8.50
2019-04-29T21:18:38.828Z,8.55
2019-04-29T21:21:08.022Z,8.50
2019-04-29T21:23:36.726Z,8.50
2019-04-29T21:26:08.566Z,8.50
2019-04-29T21:28:38.256Z,8.54
2019-04-29T21:31:05.347Z,8.59
2019-04-29T21:33:35.358Z,8.47
2019-04-29T21:36:08.488Z,8.46
2019-04-29T21:38:45.185Z,8.42
2019-04-29T21:41:21.996Z,8.48
2019-04-29T21:43:53.531Z,8.51
2019-04-29T21:46:25.657Z,8.40
2019-04-29T21:48:52.361Z,8.46
2019-04-29T21:51:20.672Z,8.43
2019-04-29T21:53:49.309Z,8.47
2019-04-29T21:56:17.696Z,8.43
2019-04-29T21:58:45.985Z,8.45
2019-04-29T22:01:15.271Z,8.48
2019-04-29T22:03:43.714Z,8.44
2019-04-29T22:06:12.448Z,8.39
2019-04-29T22:08:40.738Z,8.43
2019-04-29T22:11:09.203Z,8.39
2019-04-29T22:13:39.184Z,8.39
2019-04-29T22:16:11.455Z,8.34
2019-04-29T22:18:37.842Z,8.37
2019-04-29T22:21:09.709Z,8.38
2019-04-29T22:23:36.616Z,8.30
2019-04-29T22:26:05.162Z,8.36
2019-04-29T22:28:35.104Z,8.27
2019-04-29T22:31:05.407Z,8.25
2019-04-29T22:33:34.912Z,8.23
2019-04-29T22:36:05.363Z,8.23
2019-04-29T22:38:35.865Z,8.23
2019-04-29T22:41:05.936Z,8.18
2019-04-29T22:43:44.627Z,8.17
2019-04-29T22:46:11.478Z,8.18
2019-04-29T22:48:40.535Z,8.18
2019-04-29T22:51:10.066Z,8.12
2019-04-29T22:53:43.910Z,8.16
2019-04-29T22:56:14.017Z,8.08
2019-04-29T22:58:43.929Z,8.01
2019-04-29T23:01:10.335Z,7.94
2019-04-29T23:03:38.857Z,8.00
2019-04-29T23:06:08.541Z,7.91
2019-04-29T23:08:38.212Z,7.90
2019-04-29T23:11:07.142Z,7.86
2019-04-29T23:13:38.019Z,7.83
2019-04-29T23:16:05.837Z,7.79
2019-04-29T23:18:42.238Z,7.79
2019-04-29T23:21:08.309Z,7.86
2019-04-29T23:23:38.357Z,7.89
2019-04-29T23:26:06.641Z,7.88
2019-04-29T23:28:35.617Z,7.79
2019-04-29T23:31:04.138Z,7.72
2019-04-29T23:33:32.436Z,7.80
2019-04-29T23:36:00.757Z,7.71
2019-04-29T23:38:29.124Z,7.71
2019-04-29T23:40:57.433Z,7.76
2019-04-29T23:43:28.403Z,7.72
2019-04-29T23:45:57.047Z,7.74
2019-04-29T23:48:38.105Z,7.74
2019-04-29T23:50:58.160Z,7.69
2019-04-29T23:53:26.632Z,7.69
2019-04-29T23:55:55.665Z,7.64
2019-04-29T23:58:25.661Z,7.64
